sensor_id;sensor_type;location;lat;lon;timestamp;temperature;humidity
12504;DHT22;6316;48.118;-1.690;2022-11-28T00:01:37;11.00;99.90
12504;DHT22;6316;48.118;-1.690;2022-11-28T00:04:04;11.00;99.90
12504;DHT22;6316;48.118;-1.690;2022-11-28T00:06:29;11.00;99.90
12504;DHT22;6316;48.118;-1.690;2022-11-28T00:08:57;11.00;99.90
12504;DHT22;6316;48.118;-1.690;2022-11-28T00:11:23;11.00;99.90
12504;DHT22;6316;48.118;-1.690;2022-11-28T00:13:49;10.90;99.90
12504;DHT22;6316;48.118;-1.690;2022-11-28T00:16:17;10.90;99.90
12504;DHT22;6316;48.118;-1.690;2022-11-28T00:18:45;10.90;99.90
12504;DHT22;6316;48.118;-1.690;2022-11-28T00:21:12;10.90;99.90
12504;DHT22;6316;48.118;-1.690;2022-11-28T00:23:38;10.80;99.90
12504;DHT22;6316;48.118;-1.690;2022-11-28T00:26:09;10.80;99.90
12504;DHT22;6316;48.118;-1.690;2022-11-28T00:28:35;10.80;99.90
12504;DHT22;6316;48.118;-1.690;2022-11-28T00:31:02;10.80;99.90
12504;DHT22;6316;48.118;-1.690;2022-11-28T00:33:28;10.80;99.90
12504;DHT22;6316;48.118;-1.690;2022-11-28T00:35:58;10.80;99.90
12504;DHT22;6316;48.118;-1.690;2022-11-28T00:38:24;10.90;99.90
12504;DHT22;6316;48.118;-1.690;2022-11-28T00:41:01;10.80;99.90
12504;DHT22;6316;48.118;-1.690;2022-11-28T00:43:28;10.80;99.90
12504;DHT22;6316;48.118;-1.690;2022-11-28T00:45:54;10.80;99.90
12504;DHT22;6316;48.118;-1.690;2022-11-28T00:48:20;10.90;99.90
12504;DHT22;6316;48.118;-1.690;2022-11-28T00:50:46;10.80;99.90
12504;DHT22;6316;48.118;-1.690;2022-11-28T00:53:12;10.80;99.90
12504;DHT22;6316;48.118;-1.690;2022-11-28T00:55:38;10.80;99.90
12504;DHT22;6316;48.118;-1.690;2022-11-28T00:58:04;10.80;99.90
12504;DHT22;6316;48.118;-1.690;2022-11-28T01:00:30;10.80;99.90
12504;DHT22;6316;48.118;-1.690;2022-11-28T01:02:55;10.70;99.90
12504;DHT22;6316;48.118;-1.690;2022-11-28T01:05:21;10.70;99.90
12504;DHT22;6316;48.118;-1.690;2022-11-28T01:07:46;10.70;99.90
12504;DHT22;6316;48.118;-1.690;2022-11-28T01:10:12;10.70;99.90
12504;DHT22;6316;48.118;-1.690;2022-11-28T01:12:38;10.70;99.90
12504;DHT22;6316;48.118;-1.690;2022-11-28T01:15:05;10.60;99.90
12504;DHT22;6316;48.118;-1.690;2022-11-28T01:17:31;10.60;99.90
12504;DHT22;6316;48.118;-1.690;2022-11-28T01:19:57;10.50;99.90
12504;DHT22;6316;48.118;-1.690;2022-11-28T01:22:23;10.60;99.90
12504;DHT22;6316;48.118;-1.690;2022-11-28T01:24:48;10.60;99.90
12504;DHT22;6316;48.118;-1.690;2022-11-28T01:27:14;10.50;99.90
12504;DHT22;6316;48.118;-1.690;2022-11-28T01:29:39;10.50;99.90
12504;DHT22;6316;48.118;-1.690;2022-11-28T01:32:05;10.50;99.90
12504;DHT22;6316;48.118;-1.690;2022-11-28T01:34:30;10.50;99.90
12504;DHT22;6316;48.118;-1.690;2022-11-28T01:36:56;10.50;99.90
12504;DHT22;6316;48.118;-1.690;2022-11-28T01:39:22;10.50;99.90
12504;DHT22;6316;48.118;-1.690;2022-11-28T01:41:47;10.40;99.90
12504;DHT22;6316;48.118;-1.690;2022-11-28T01:46:39;10.50;99.90
12504;DHT22;6316;48.118;-1.690;2022-11-28T01:49:16;10.40;99.90
12504;DHT22;6316;48.118;-1.690;2022-11-28T01:51:53;10.40;99.90
12504;DHT22;6316;48.118;-1.690;2022-11-28T01:54:21;10.40;99.90
12504;DHT22;6316;48.118;-1.690;2022-11-28T01:57:14;10.40;99.90
12504;DHT22;6316;48.118;-1.690;2022-11-28T01:59:44;10.30;99.90
12504;DHT22;6316;48.118;-1.690;2022-11-28T02:02:17;10.30;99.90
12504;DHT22;6316;48.118;-1.690;2022-11-28T02:04:45;10.30;99.90
12504;DHT22;6316;48.118;-1.690;2022-11-28T02:07:12;10.20;99.90
12504;DHT22;6316;48.118;-1.690;2022-11-28T02:09:38;10.20;99.90
12504;DHT22;6316;48.118;-1.690;2022-11-28T02:12:33;10.20;99.90
12504;DHT22;6316;48.118;-1.690;2022-11-28T02:17:55;10.10;99.90
12504;DHT22;6316;48.118;-1.690;2022-11-28T02:23:02;10.00;99.90
12504;DHT22;6316;48.118;-1.690;2022-11-28T02:34:02;9.90;99.90
12504;DHT22;6316;48.118;-1.690;2022-11-28T02:36:32;9.90;99.90
12504;DHT22;6316;48.118;-1.690;2022-11-28T02:39:12;9.90;99.90
12504;DHT22;6316;48.118;-1.690;2022-11-28T02:44:17;9.80;99.90
12504;DHT22;6316;48.118;-1.690;2022-11-28T02:49:39;9.80;99.90
12504;DHT22;6316;48.118;-1.690;2022-11-28T02:52:15;9.80;99.90
12504;DHT22;6316;48.118;-1.690;2022-11-28T02:54:43;9.70;99.90
12504;DHT22;6316;48.118;-1.690;2022-11-28T02:57:10;9.70;99.90
12504;DHT22;6316;48.118;-1.690;2022-11-28T03:02:02;9.70;99.90
12504;DHT22;6316;48.118;-1.690;2022-11-28T03:10:34;9.60;99.90
12504;DHT22;6316;48.118;-1.690;2022-11-28T03:18:33;9.50;99.90
12504;DHT22;6316;48.118;-1.690;2022-11-28T03:21:13;9.50;99.90
12504;DHT22;6316;48.118;-1.690;2022-11-28T03:26:11;9.40;99.90
12504;DHT22;6316;48.118;-1.690;2022-11-28T03:28:58;9.50;99.90
12504;DHT22;6316;48.118;-1.690;2022-11-28T03:31:35;9.50;99.90
12504;DHT22;6316;48.118;-1.690;2022-11-28T03:34:04;9.40;99.90
12504;DHT22;6316;48.118;-1.690;2022-11-28T03:36:35;9.40;99.90
12504;DHT22;6316;48.118;-1.690;2022-11-28T03:39:13;9.40;99.90
12504;DHT22;6316;48.118;-1.690;2022-11-28T03:44:17;9.40;99.90
12504;DHT22;6316;48.118;-1.690;2022-11-28T03:46:46;9.30;99.90
12504;DHT22;6316;48.118;-1.690;2022-11-28T03:49:16;9.30;99.90
12504;DHT22;6316;48.118;-1.690;2022-11-28T03:51:56;9.30;99.90
12504;DHT22;6316;48.118;-1.690;2022-11-28T03:59:50;9.20;99.90
12504;DHT22;6316;48.118;-1.690;2022-11-28T04:02:30;9.20;99.90
12504;DHT22;6316;48.118;-1.690;2022-11-28T04:07:46;9.10;99.90
12504;DHT22;6316;48.118;-1.690;2022-11-28T04:21:07;9.10;99.90
12504;DHT22;6316;48.118;-1.690;2022-11-28T04:23:35;9.00;99.90
12504;DHT22;6316;48.118;-1.690;2022-11-28T04:29:10;9.10;99.90
12504;DHT22;6316;48.118;-1.690;2022-11-28T04:31:38;9.00;99.90
12504;DHT22;6316;48.118;-1.690;2022-11-28T04:34:07;9.10;99.90
12504;DHT22;6316;48.118;-1.690;2022-11-28T04:36:36;9.00;99.90
12504;DHT22;6316;48.118;-1.690;2022-11-28T04:39:08;9.00;99.90
12504;DHT22;6316;48.118;-1.690;2022-11-28T04:41:40;9.10;99.90
12504;DHT22;6316;48.118;-1.690;2022-11-28T04:46:51;9.10;99.90
12504;DHT22;6316;48.118;-1.690;2022-11-28T04:49:18;9.10;99.90
12504;DHT22;6316;48.118;-1.690;2022-11-28T04:52:03;9.10;99.90
12504;DHT22;6316;48.118;-1.690;2022-11-28T04:54:51;9.10;99.90
12504;DHT22;6316;48.118;-1.690;2022-11-28T04:57:29;9.10;99.90
12504;DHT22;6316;48.118;-1.690;2022-11-28T04:59:59;9.00;99.90
12504;DHT22;6316;48.118;-1.690;2022-11-28T05:02:26;9.10;99.90
12504;DHT22;6316;48.118;-1.690;2022-11-28T05:04:53;9.10;99.90
12504;DHT22;6316;48.118;-1.690;2022-11-28T05:07:20;9.10;99.90
12504;DHT22;6316;48.118;-1.690;2022-11-28T05:09:46;9.10;99.90
12504;DHT22;6316;48.118;-1.690;2022-11-28T05:12:12;9.10;99.90
12504;DHT22;6316;48.118;-1.690;2022-11-28T05:14:38;9.10;99.90
12504;DHT22;6316;48.118;-1.690;2022-11-28T05:17:05;9.10;99.90
12504;DHT22;6316;48.118;-1.690;2022-11-28T05:19:31;9.10;99.90
12504;DHT22;6316;48.118;-1.690;2022-11-28T05:21:56;9.10;99.90
12504;DHT22;6316;48.118;-1.690;2022-11-28T05:24:22;9.10;99.90
12504;DHT22;6316;48.118;-1.690;2022-11-28T05:26:47;9.10;99.90
12504;DHT22;6316;48.118;-1.690;2022-11-28T05:29:13;9.10;99.90
12504;DHT22;6316;48.118;-1.690;2022-11-28T05:31:39;9.10;99.90
12504;DHT22;6316;48.118;-1.690;2022-11-28T05:34:04;9.10;99.90
12504;DHT22;6316;48.118;-1.690;2022-11-28T05:36:30;9.10;99.90
12504;DHT22;6316;48.118;-1.690;2022-11-28T05:38:55;9.10;99.90
12504;DHT22;6316;48.118;-1.690;2022-11-28T05:41:27;9.10;99.90
12504;DHT22;6316;48.118;-1.690;2022-11-28T05:43:53;9.10;99.90
12504;DHT22;6316;48.118;-1.690;2022-11-28T05:46:19;9.10;99.90
12504;DHT22;6316;48.118;-1.690;2022-11-28T05:48:44;9.00;99.90
12504;DHT22;6316;48.118;-1.690;2022-11-28T05:51:10;9.10;99.90
12504;DHT22;6316;48.118;-1.690;2022-11-28T05:53:36;9.10;99.90
12504;DHT22;6316;48.118;-1.690;2022-11-28T05:56:06;9.10;99.90
12504;DHT22;6316;48.118;-1.690;2022-11-28T05:58:31;9.10;99.90
12504;DHT22;6316;48.118;-1.690;2022-11-28T06:00:57;9.10;99.90
12504;DHT22;6316;48.118;-1.690;2022-11-28T06:03:23;9.20;99.90
12504;DHT22;6316;48.118;-1.690;2022-11-28T06:05:48;9.20;99.90
12504;DHT22;6316;48.118;-1.690;2022-11-28T06:08:14;9.20;99.90
12504;DHT22;6316;48.118;-1.690;2022-11-28T06:10:40;9.30;99.90
12504;DHT22;6316;48.118;-1.690;2022-11-28T06:13:06;9.20;99.90
12504;DHT22;6316;48.118;-1.690;2022-11-28T06:15:32;9.20;99.90
12504;DHT22;6316;48.118;-1.690;2022-11-28T06:17:58;9.20;99.90
12504;DHT22;6316;48.118;-1.690;2022-11-28T06:20:23;9.10;99.90
12504;DHT22;6316;48.118;-1.690;2022-11-28T06:22:49;9.20;99.90
12504;DHT22;6316;48.118;-1.690;2022-11-28T06:25:15;9.20;99.90
12504;DHT22;6316;48.118;-1.690;2022-11-28T06:27:40;9.20;99.90
12504;DHT22;6316;48.118;-1.690;2022-11-28T06:30:06;9.10;99.90
12504;DHT22;6316;48.118;-1.690;2022-11-28T06:32:32;9.20;99.90
12504;DHT22;6316;48.118;-1.690;2022-11-28T06:34:58;9.20;99.90
12504;DHT22;6316;48.118;-1.690;2022-11-28T06:37:23;9.30;99.90
12504;DHT22;6316;48.118;-1.690;2022-11-28T06:39:49;9.20;99.90
12504;DHT22;6316;48.118;-1.690;2022-11-28T06:42:16;9.20;99.90
12504;DHT22;6316;48.118;-1.690;2022-11-28T06:44:42;9.20;99.90
12504;DHT22;6316;48.118;-1.690;2022-11-28T06:47:08;9.20;99.90
12504;DHT22;6316;48.118;-1.690;2022-11-28T06:49:33;9.20;99.90
12504;DHT22;6316;48.118;-1.690;2022-11-28T06:52:01;9.20;99.90
12504;DHT22;6316;48.118;-1.690;2022-11-28T06:54:27;9.20;99.90
12504;DHT22;6316;48.118;-1.690;2022-11-28T06:56:52;9.20;99.90
12504;DHT22;6316;48.118;-1.690;2022-11-28T06:59:18;9.20;99.90
12504;DHT22;6316;48.118;-1.690;2022-11-28T07:01:44;9.10;99.90
12504;DHT22;6316;48.118;-1.690;2022-11-28T07:04:09;9.10;99.90
12504;DHT22;6316;48.118;-1.690;2022-11-28T07:06:35;9.10;99.90
12504;DHT22;6316;48.118;-1.690;2022-11-28T07:09:01;9.10;99.90
12504;DHT22;6316;48.118;-1.690;2022-11-28T07:11:29;9.10;99.90
12504;DHT22;6316;48.118;-1.690;2022-11-28T07:13:56;9.10;99.90
12504;DHT22;6316;48.118;-1.690;2022-11-28T07:16:28;9.10;99.90
12504;DHT22;6316;48.118;-1.690;2022-11-28T07:18:55;9.10;99.90
12504;DHT22;6316;48.118;-1.690;2022-11-28T07:21:21;9.10;99.90
12504;DHT22;6316;48.118;-1.690;2022-11-28T07:23:47;9.10;99.90
12504;DHT22;6316;48.118;-1.690;2022-11-28T07:26:16;9.00;99.90
12504;DHT22;6316;48.118;-1.690;2022-11-28T07:28:43;9.00;99.90
12504;DHT22;6316;48.118;-1.690;2022-11-28T07:31:15;9.00;99.90
12504;DHT22;6316;48.118;-1.690;2022-11-28T07:33:43;9.00;99.90
12504;DHT22;6316;48.118;-1.690;2022-11-28T07:36:18;9.00;99.90
12504;DHT22;6316;48.118;-1.690;2022-11-28T07:38:53;8.90;99.90
12504;DHT22;6316;48.118;-1.690;2022-11-28T07:41:20;8.90;99.90
12504;DHT22;6316;48.118;-1.690;2022-11-28T07:43:47;8.90;99.90
12504;DHT22;6316;48.118;-1.690;2022-11-28T07:46:15;8.90;99.90
12504;DHT22;6316;48.118;-1.690;2022-11-28T07:48:41;8.90;99.90
12504;DHT22;6316;48.118;-1.690;2022-11-28T07:51:19;8.90;99.90
12504;DHT22;6316;48.118;-1.690;2022-11-28T07:53:45;8.90;99.90
12504;DHT22;6316;48.118;-1.690;2022-11-28T07:56:17;8.90;99.90
12504;DHT22;6316;48.118;-1.690;2022-11-28T07:58:44;9.00;99.90
12504;DHT22;6316;48.118;-1.690;2022-11-28T08:01:15;8.90;99.90
12504;DHT22;6316;48.118;-1.690;2022-11-28T08:03:42;8.90;99.90
12504;DHT22;6316;48.118;-1.690;2022-11-28T08:06:09;9.00;99.90
12504;DHT22;6316;48.118;-1.690;2022-11-28T08:08:35;8.90;99.90
12504;DHT22;6316;48.118;-1.690;2022-11-28T08:11:03;8.90;99.90
12504;DHT22;6316;48.118;-1.690;2022-11-28T08:13:29;9.00;99.90
12504;DHT22;6316;48.118;-1.690;2022-11-28T08:15:56;8.90;99.90
12504;DHT22;6316;48.118;-1.690;2022-11-28T08:18:22;9.00;99.90
12504;DHT22;6316;48.118;-1.690;2022-11-28T08:20:48;9.00;99.90
12504;DHT22;6316;48.118;-1.690;2022-11-28T08:23:13;9.00;99.90
12504;DHT22;6316;48.118;-1.690;2022-11-28T08:25:39;9.00;99.90
12504;DHT22;6316;48.118;-1.690;2022-11-28T08:28:04;9.00;99.90
12504;DHT22;6316;48.118;-1.690;2022-11-28T08:30:30;9.00;99.90
12504;DHT22;6316;48.118;-1.690;2022-11-28T08:32:56;9.10;99.90
12504;DHT22;6316;48.118;-1.690;2022-11-28T08:35:22;9.10;99.90
12504;DHT22;6316;48.118;-1.690;2022-11-28T08:37:47;9.10;99.90
12504;DHT22;6316;48.118;-1.690;2022-11-28T08:40:13;9.20;99.90
12504;DHT22;6316;48.118;-1.690;2022-11-28T08:42:39;9.20;99.90
12504;DHT22;6316;48.118;-1.690;2022-11-28T08:45:06;9.30;99.90
12504;DHT22;6316;48.118;-1.690;2022-11-28T08:47:32;9.40;99.90
12504;DHT22;6316;48.118;-1.690;2022-11-28T08:49:57;9.50;99.90
12504;DHT22;6316;48.118;-1.690;2022-11-28T08:52:24;9.50;99.90
12504;DHT22;6316;48.118;-1.690;2022-11-28T08:54:49;9.60;99.90
12504;DHT22;6316;48.118;-1.690;2022-11-28T08:57:15;9.60;99.90
12504;DHT22;6316;48.118;-1.690;2022-11-28T08:59:40;9.70;99.90
12504;DHT22;6316;48.118;-1.690;2022-11-28T09:02:09;9.80;99.90
12504;DHT22;6316;48.118;-1.690;2022-11-28T09:04:35;9.80;99.90
12504;DHT22;6316;48.118;-1.690;2022-11-28T09:07:01;9.80;99.90
12504;DHT22;6316;48.118;-1.690;2022-11-28T09:09:28;9.90;99.90
12504;DHT22;6316;48.118;-1.690;2022-11-28T09:11:54;9.90;99.90
12504;DHT22;6316;48.118;-1.690;2022-11-28T09:14:19;9.80;99.90
12504;DHT22;6316;48.118;-1.690;2022-11-28T09:16:45;9.80;99.90
12504;DHT22;6316;48.118;-1.690;2022-11-28T09:19:11;9.80;99.90
12504;DHT22;6316;48.118;-1.690;2022-11-28T09:21:37;9.80;99.90
12504;DHT22;6316;48.118;-1.690;2022-11-28T09:24:03;9.80;99.90
12504;DHT22;6316;48.118;-1.690;2022-11-28T09:26:29;9.80;99.90
12504;DHT22;6316;48.118;-1.690;2022-11-28T09:28:54;9.80;99.90
12504;DHT22;6316;48.118;-1.690;2022-11-28T09:31:21;9.80;99.90
12504;DHT22;6316;48.118;-1.690;2022-11-28T09:33:47;9.80;99.90
12504;DHT22;6316;48.118;-1.690;2022-11-28T09:36:16;9.90;99.90
12504;DHT22;6316;48.118;-1.690;2022-11-28T09:38:42;9.90;99.90
12504;DHT22;6316;48.118;-1.690;2022-11-28T09:43:57;10.00;99.90
12504;DHT22;6316;48.118;-1.690;2022-11-28T09:46:28;10.10;99.90
12504;DHT22;6316;48.118;-1.690;2022-11-28T09:48:57;10.10;99.90
12504;DHT22;6316;48.118;-1.690;2022-11-28T09:51:28;10.20;99.90
12504;DHT22;6316;48.118;-1.690;2022-11-28T09:56:40;10.30;99.90
12504;DHT22;6316;48.118;-1.690;2022-11-28T09:59:16;10.30;99.90
12504;DHT22;6316;48.118;-1.690;2022-11-28T10:02:15;10.30;99.90
12504;DHT22;6316;48.118;-1.690;2022-11-28T10:10:57;10.30;99.90
12504;DHT22;6316;48.118;-1.690;2022-11-28T10:23:57;10.70;99.90
12504;DHT22;6316;48.118;-1.690;2022-11-28T10:26:38;10.70;99.90
12504;DHT22;6316;48.118;-1.690;2022-11-28T10:31:47;10.60;99.90
12504;DHT22;6316;48.118;-1.690;2022-11-28T10:34:18;10.50;99.90
12504;DHT22;6316;48.118;-1.690;2022-11-28T10:36:56;10.50;99.90
12504;DHT22;6316;48.118;-1.690;2022-11-28T10:39:25;10.50;99.90
12504;DHT22;6316;48.118;-1.690;2022-11-28T10:47:46;10.70;99.90
12504;DHT22;6316;48.118;-1.690;2022-11-28T10:58:26;11.00;99.90
12504;DHT22;6316;48.118;-1.690;2022-11-28T11:00:55;11.00;99.90
12504;DHT22;6316;48.118;-1.690;2022-11-28T11:03:30;11.00;99.90
12504;DHT22;6316;48.118;-1.690;2022-11-28T11:05:56;11.00;99.90
12504;DHT22;6316;48.118;-1.690;2022-11-28T11:08:24;11.00;99.90
12504;DHT22;6316;48.118;-1.690;2022-11-28T11:10:59;11.10;99.90
12504;DHT22;6316;48.118;-1.690;2022-11-28T11:13:29;11.30;99.90
12504;DHT22;6316;48.118;-1.690;2022-11-28T11:16:01;11.50;99.90
12504;DHT22;6316;48.118;-1.690;2022-11-28T11:18:30;12.00;99.90
12504;DHT22;6316;48.118;-1.690;2022-11-28T11:23:36;12.50;99.90
12504;DHT22;6316;48.118;-1.690;2022-11-28T11:26:02;12.70;99.90
12504;DHT22;6316;48.118;-1.690;2022-11-28T11:31:13;12.70;99.90
12504;DHT22;6316;48.118;-1.690;2022-11-28T11:33:39;12.60;99.90
12504;DHT22;6316;48.118;-1.690;2022-11-28T11:36:25;12.60;99.90
12504;DHT22;6316;48.118;-1.690;2022-11-28T11:39:10;12.50;99.90
12504;DHT22;6316;48.118;-1.690;2022-11-28T11:44:28;12.50;99.90
12504;DHT22;6316;48.118;-1.690;2022-11-28T11:46:58;12.50;99.90
12504;DHT22;6316;48.118;-1.690;2022-11-28T11:50:03;12.40;99.90
12504;DHT22;6316;48.118;-1.690;2022-11-28T11:52:29;12.30;99.90
12504;DHT22;6316;48.118;-1.690;2022-11-28T11:57:24;12.20;99.90
12504;DHT22;6316;48.118;-1.690;2022-11-28T11:59:53;12.20;99.90
12504;DHT22;6316;48.118;-1.690;2022-11-28T12:04:59;12.10;99.90
12504;DHT22;6316;48.118;-1.690;2022-11-28T12:10:24;12.00;99.90
12504;DHT22;6316;48.118;-1.690;2022-11-28T12:12:51;12.00;99.90
12504;DHT22;6316;48.118;-1.690;2022-11-28T12:15:29;12.00;99.90
12504;DHT22;6316;48.118;-1.690;2022-11-28T12:21:01;12.00;99.90
12504;DHT22;6316;48.118;-1.690;2022-11-28T12:26:24;12.00;99.90
12504;DHT22;6316;48.118;-1.690;2022-11-28T12:37:07;12.10;99.90
12504;DHT22;6316;48.118;-1.690;2022-11-28T12:42:31;12.10;99.90
12504;DHT22;6316;48.118;-1.690;2022-11-28T12:50:37;12.20;99.90
12504;DHT22;6316;48.118;-1.690;2022-11-28T12:56:36;12.20;99.90
12504;DHT22;6316;48.118;-1.690;2022-11-28T12:59:30;12.30;99.90
12504;DHT22;6316;48.118;-1.690;2022-11-28T13:10:50;12.70;99.90
12504;DHT22;6316;48.118;-1.690;2022-11-28T13:13:28;12.70;99.90
12504;DHT22;6316;48.118;-1.690;2022-11-28T13:21:12;12.80;99.90
12504;DHT22;6316;48.118;-1.690;2022-11-28T13:23:58;12.90;99.90
12504;DHT22;6316;48.118;-1.690;2022-11-28T13:34:17;13.00;99.90
12504;DHT22;6316;48.118;-1.690;2022-11-28T13:39:39;13.00;99.90
12504;DHT22;6316;48.118;-1.690;2022-11-28T13:45:04;12.90;99.90
12504;DHT22;6316;48.118;-1.690;2022-11-28T13:47:35;12.90;99.90
12504;DHT22;6316;48.118;-1.690;2022-11-28T13:53:00;12.80;99.90
12504;DHT22;6316;48.118;-1.690;2022-11-28T13:58:50;12.60;99.90
12504;DHT22;6316;48.118;-1.690;2022-11-28T14:01:19;12.50;99.90
12504;DHT22;6316;48.118;-1.690;2022-11-28T14:04:08;12.40;99.90
12504;DHT22;6316;48.118;-1.690;2022-11-28T14:06:45;12.40;99.90
12504;DHT22;6316;48.118;-1.690;2022-11-28T14:25:55;12.00;99.90
12504;DHT22;6316;48.118;-1.690;2022-11-28T14:30:50;12.10;99.90
12504;DHT22;6316;48.118;-1.690;2022-11-28T14:33:21;12.20;99.90
12504;DHT22;6316;48.118;-1.690;2022-11-28T14:41:02;12.20;99.90
12504;DHT22;6316;48.118;-1.690;2022-11-28T14:54:27;12.10;99.90
12504;DHT22;6316;48.118;-1.690;2022-11-28T14:56:54;12.10;99.90
12504;DHT22;6316;48.118;-1.690;2022-11-28T14:59:26;12.10;99.90
12504;DHT22;6316;48.118;-1.690;2022-11-28T15:10:23;12.30;99.90
12504;DHT22;6316;48.118;-1.690;2022-11-28T15:15:51;12.30;99.90
12504;DHT22;6316;48.118;-1.690;2022-11-28T15:18:22;12.30;99.90
12504;DHT22;6316;48.118;-1.690;2022-11-28T15:20:53;12.20;99.90
12504;DHT22;6316;48.118;-1.690;2022-11-28T15:23:31;12.20;99.90
12504;DHT22;6316;48.118;-1.690;2022-11-28T15:25:58;12.20;99.90
12504;DHT22;6316;48.118;-1.690;2022-11-28T15:28:26;12.10;99.90
12504;DHT22;6316;48.118;-1.690;2022-11-28T15:30:54;12.10;99.90
12504;DHT22;6316;48.118;-1.690;2022-11-28T15:33:22;12.00;99.90
12504;DHT22;6316;48.118;-1.690;2022-11-28T15:36:04;11.90;99.90
12504;DHT22;6316;48.118;-1.690;2022-11-28T15:38:35;11.90;99.90
12504;DHT22;6316;48.118;-1.690;2022-11-28T15:41:02;11.80;99.90
12504;DHT22;6316;48.118;-1.690;2022-11-28T15:43:28;11.80;99.90
12504;DHT22;6316;48.118;-1.690;2022-11-28T15:45:58;11.70;99.90
12504;DHT22;6316;48.118;-1.690;2022-11-28T15:48:34;11.70;99.90
12504;DHT22;6316;48.118;-1.690;2022-11-28T15:51:01;11.70;99.90
12504;DHT22;6316;48.118;-1.690;2022-11-28T15:53:27;11.60;99.90
12504;DHT22;6316;48.118;-1.690;2022-11-28T15:56:07;11.60;99.90
12504;DHT22;6316;48.118;-1.690;2022-11-28T15:58:33;11.60;99.90
12504;DHT22;6316;48.118;-1.690;2022-11-28T16:03:33;11.50;99.90
12504;DHT22;6316;48.118;-1.690;2022-11-28T16:06:00;11.40;99.90
12504;DHT22;6316;48.118;-1.690;2022-11-28T16:08:35;11.40;99.90
12504;DHT22;6316;48.118;-1.690;2022-11-28T16:11:03;11.30;99.90
12504;DHT22;6316;48.118;-1.690;2022-11-28T16:13:31;11.20;99.90
12504;DHT22;6316;48.118;-1.690;2022-11-28T16:15:58;11.20;99.90
12504;DHT22;6316;48.118;-1.690;2022-11-28T16:18:26;11.10;99.90
12504;DHT22;6316;48.118;-1.690;2022-11-28T16:20:54;11.10;99.90
12504;DHT22;6316;48.118;-1.690;2022-11-28T16:23:41;11.00;99.90
12504;DHT22;6316;48.118;-1.690;2022-11-28T16:26:21;11.00;99.90
12504;DHT22;6316;48.118;-1.690;2022-11-28T16:31:31;10.90;99.90
12504;DHT22;6316;48.118;-1.690;2022-11-28T16:33:59;10.90;99.90
12504;DHT22;6316;48.118;-1.690;2022-11-28T16:36:37;10.80;99.90
12504;DHT22;6316;48.118;-1.690;2022-11-28T16:41:33;10.90;99.90
12504;DHT22;6316;48.118;-1.690;2022-11-28T16:44:08;10.90;99.90
12504;DHT22;6316;48.118;-1.690;2022-11-28T16:46:38;10.90;99.90
12504;DHT22;6316;48.118;-1.690;2022-11-28T16:49:05;10.90;99.90
12504;DHT22;6316;48.118;-1.690;2022-11-28T16:51:39;10.90;99.90
12504;DHT22;6316;48.118;-1.690;2022-11-28T16:54:30;10.90;99.90
12504;DHT22;6316;48.118;-1.690;2022-11-28T16:57:10;10.80;99.90
12504;DHT22;6316;48.118;-1.690;2022-11-28T16:59:36;10.80;99.90
12504;DHT22;6316;48.118;-1.690;2022-11-28T17:02:01;10.70;99.90
12504;DHT22;6316;48.118;-1.690;2022-11-28T17:04:29;10.60;99.90
12504;DHT22;6316;48.118;-1.690;2022-11-28T17:06:59;10.50;99.90
12504;DHT22;6316;48.118;-1.690;2022-11-28T17:09:30;10.50;99.90
12504;DHT22;6316;48.118;-1.690;2022-11-28T17:12:07;10.50;99.90
12504;DHT22;6316;48.118;-1.690;2022-11-28T17:14:36;10.40;99.90
12504;DHT22;6316;48.118;-1.690;2022-11-28T17:17:12;10.40;99.90
12504;DHT22;6316;48.118;-1.690;2022-11-28T17:19:38;10.40;99.90
12504;DHT22;6316;48.118;-1.690;2022-11-28T17:22:05;10.30;99.90
12504;DHT22;6316;48.118;-1.690;2022-11-28T17:24:34;10.30;99.90
12504;DHT22;6316;48.118;-1.690;2022-11-28T17:27:01;10.20;99.90
12504;DHT22;6316;48.118;-1.690;2022-11-28T17:29:27;10.30;99.90
12504;DHT22;6316;48.118;-1.690;2022-11-28T17:31:54;10.30;99.90
12504;DHT22;6316;48.118;-1.690;2022-11-28T17:34:24;10.20;99.90
12504;DHT22;6316;48.118;-1.690;2022-11-28T17:36:50;10.20;99.90
12504;DHT22;6316;48.118;-1.690;2022-11-28T17:39:17;10.10;99.90
12504;DHT22;6316;48.118;-1.690;2022-11-28T17:41:43;10.10;99.90
12504;DHT22;6316;48.118;-1.690;2022-11-28T17:46:44;10.00;99.90
12504;DHT22;6316;48.118;-1.690;2022-11-28T17:49:10;10.00;99.90
12504;DHT22;6316;48.118;-1.690;2022-11-28T17:51:35;9.90;99.90
12504;DHT22;6316;48.118;-1.690;2022-11-28T17:54:01;9.90;99.90
12504;DHT22;6316;48.118;-1.690;2022-11-28T17:56:27;9.90;99.90
12504;DHT22;6316;48.118;-1.690;2022-11-28T17:58:52;9.80;99.90
12504;DHT22;6316;48.118;-1.690;2022-11-28T18:01:22;9.80;99.90
12504;DHT22;6316;48.118;-1.690;2022-11-28T18:03:49;9.70;99.90
12504;DHT22;6316;48.118;-1.690;2022-11-28T18:06:16;9.70;99.90
12504;DHT22;6316;48.118;-1.690;2022-11-28T18:08:43;9.70;99.90
12504;DHT22;6316;48.118;-1.690;2022-11-28T18:11:10;9.60;99.90
12504;DHT22;6316;48.118;-1.690;2022-11-28T18:13:35;9.60;99.90
12504;DHT22;6316;48.118;-1.690;2022-11-28T18:16:02;9.60;99.90
12504;DHT22;6316;48.118;-1.690;2022-11-28T18:18:28;9.60;99.90
12504;DHT22;6316;48.118;-1.690;2022-11-28T18:20:54;9.50;99.90
12504;DHT22;6316;48.118;-1.690;2022-11-28T18:23:20;9.50;99.90
12504;DHT22;6316;48.118;-1.690;2022-11-28T18:25:46;9.40;99.90
12504;DHT22;6316;48.118;-1.690;2022-11-28T18:28:13;9.50;99.90
12504;DHT22;6316;48.118;-1.690;2022-11-28T18:30:43;9.40;99.90
12504;DHT22;6316;48.118;-1.690;2022-11-28T18:33:12;9.40;99.90
12504;DHT22;6316;48.118;-1.690;2022-11-28T18:35:39;9.40;99.90
12504;DHT22;6316;48.118;-1.690;2022-11-28T18:38:06;9.40;99.90
12504;DHT22;6316;48.118;-1.690;2022-11-28T18:40:33;9.40;99.90
12504;DHT22;6316;48.118;-1.690;2022-11-28T18:43:01;9.30;99.90
12504;DHT22;6316;48.118;-1.690;2022-11-28T18:45:27;9.30;99.90
12504;DHT22;6316;48.118;-1.690;2022-11-28T18:47:53;9.30;99.90
12504;DHT22;6316;48.118;-1.690;2022-11-28T18:50:18;9.30;99.90
12504;DHT22;6316;48.118;-1.690;2022-11-28T18:52:44;9.30;99.90
12504;DHT22;6316;48.118;-1.690;2022-11-28T18:55:10;9.30;99.90
12504;DHT22;6316;48.118;-1.690;2022-11-28T18:57:36;9.40;99.90
12504;DHT22;6316;48.118;-1.690;2022-11-28T19:00:03;9.30;99.90
12504;DHT22;6316;48.118;-1.690;2022-11-28T19:02:29;9.40;99.90
12504;DHT22;6316;48.118;-1.690;2022-11-28T19:04:55;9.50;99.90
12504;DHT22;6316;48.118;-1.690;2022-11-28T19:07:21;9.40;99.90
12504;DHT22;6316;48.118;-1.690;2022-11-28T19:09:47;9.40;99.90
12504;DHT22;6316;48.118;-1.690;2022-11-28T19:12:12;9.50;99.90
12504;DHT22;6316;48.118;-1.690;2022-11-28T19:14:38;9.40;99.90
12504;DHT22;6316;48.118;-1.690;2022-11-28T19:17:04;9.40;99.90
12504;DHT22;6316;48.118;-1.690;2022-11-28T19:19:30;9.40;99.90
12504;DHT22;6316;48.118;-1.690;2022-11-28T19:21:55;9.30;99.90
12504;DHT22;6316;48.118;-1.690;2022-11-28T19:24:21;9.30;99.90
12504;DHT22;6316;48.118;-1.690;2022-11-28T19:26:47;9.30;99.90
12504;DHT22;6316;48.118;-1.690;2022-11-28T19:29:13;9.20;99.90
12504;DHT22;6316;48.118;-1.690;2022-11-28T19:31:40;9.20;99.90
12504;DHT22;6316;48.118;-1.690;2022-11-28T19:34:09;9.10;99.90
12504;DHT22;6316;48.118;-1.690;2022-11-28T19:36:38;9.30;99.90
12504;DHT22;6316;48.118;-1.690;2022-11-28T19:39:05;9.10;99.90
12504;DHT22;6316;48.118;-1.690;2022-11-28T19:41:32;9.10;99.90
12504;DHT22;6316;48.118;-1.690;2022-11-28T19:43:58;9.10;99.90
12504;DHT22;6316;48.118;-1.690;2022-11-28T19:46:24;9.00;99.90
12504;DHT22;6316;48.118;-1.690;2022-11-28T19:48:50;9.00;99.90